Time;durP1;ratioP1;P1;durP2;ratioP2;P2;SDS_P1;SDS_P2;PMS_P1;PMS_P2;Temp;Humidity;BMP_temperature;BMP_pressure;BME280_temperature;BME280_humidity;BME280_pressure;Samples;Min_cycle;Max_cycle;Signal;HPM_P1;HPM_P2
2022/12/05 00:00:28;;;;;;;;;;;;;;;12.22;46.21;99704.09;4502450;31;34416;-90
2022/12/05 00:02:55;;;;;;;;;;;;;;;12.51;45.72;99702.78;4507967;31;35116;-91
2022/12/05 00:05:23;;;;;;;;;;;;;;;12.30;45.80;99702.50;4507110;31;34539;-85
2022/12/05 00:07:50;;;;;;;;;;;;;;;11.14;49.03;99689.31;4499527;31;34257;-87
2022/12/05 00:10:18;;;;;;;;;;;;;;;11.50;48.28;99688.19;4506421;31;34514;-90
2022/12/05 00:12:45;;;;;;;;;;;;;;;11.11;48.49;99690.97;4514140;31;34214;-86
2022/12/05 00:15:12;;;;;;;;;;;;;;;11.18;48.69;99698.03;4508847;31;33422;-85
2022/12/05 00:17:39;;;;;;;;;;;;;;;9.20;53.77;99702.97;4499215;31;33676;-84
2022/12/05 00:20:07;;;;;;;;;;;;;;;10.36;51.29;99692.88;4508698;31;34173;-85
2022/12/05 00:22:36;;;;;;;;;;;;;;;9.91;52.15;99705.63;4512429;31;34415;-90
2022/12/05 00:25:04;;;;;;;;;;;;;;;10.66;50.44;99700.44;4510766;31;33656;-83
2022/12/05 00:27:32;;;;;;;;;;;;;;;10.77;50.41;99697.22;4497639;31;34880;-90
2022/12/05 00:29:59;;;;;;;;;;;;;;;10.05;51.81;99701.66;4499785;31;34361;-90
2022/12/05 00:32:27;;;;;;;;;;;;;;;10.17;51.93;99703.66;4504264;31;34551;-90
2022/12/05 00:34:55;;;;;;;;;;;;;;;10.45;51.15;99692.19;4514187;31;33706;-86
2022/12/05 00:37:22;;;;;;;;;;;;;;;10.83;50.10;99695.59;4514690;31;34085;-84
2022/12/05 00:39:49;;;;;;;;;;;;;;;10.33;51.16;99697.13;4514779;31;34430;-89
2022/12/05 00:42:16;;;;;;;;;;;;;;;9.98;52.36;99712.72;4498208;31;34475;-85
2022/12/05 00:44:44;;;;;;;;;;;;;;;10.23;51.74;99709.84;4505663;31;33128;-84
2022/12/05 00:47:11;;;;;;;;;;;;;;;9.27;54.28;99702.28;4503243;31;35734;-89
2022/12/05 00:49:38;;;;;;;;;;;;;;;10.56;50.94;99710.59;4500601;31;34064;-89
2022/12/05 00:52:05;;;;;;;;;;;;;;;10.64;50.47;99702.13;4513043;31;34542;-89
2022/12/05 00:54:32;;;;;;;;;;;;;;;11.18;48.95;99698.03;4514605;31;33384;-87
2022/12/05 00:57:00;;;;;;;;;;;;;;;10.35;51.54;99705.81;4508350;31;34651;-83
2022/12/05 00:59:27;;;;;;;;;;;;;;;10.56;50.93;99700.22;4510444;31;34105;-88
2022/12/05 01:01:54;;;;;;;;;;;;;;;10.84;50.08;99692.19;4505620;31;34803;-84
2022/12/05 01:04:22;;;;;;;;;;;;;;;10.95;49.58;99689.81;4501600;31;33989;-84
2022/12/05 01:06:50;;;;;;;;;;;;;;;10.01;52.28;99701.56;4499116;31;34176;-91
2022/12/05 01:09:18;;;;;;;;;;;;;;;9.30;54.89;99696.34;4498282;31;35379;-85
2022/12/05 01:11:46;;;;;;;;;;;;;;;8.86;55.87;99696.84;4509914;31;34875;-84
2022/12/05 01:14:14;;;;;;;;;;;;;;;10.24;52.51;99692.59;4507525;31;34106;-87
2022/12/05 01:16:42;;;;;;;;;;;;;;;9.25;54.78;99689.31;4500685;31;34188;-84
2022/12/05 01:19:11;;;;;;;;;;;;;;;9.42;54.51;99674.22;4507235;31;33944;-89
2022/12/05 01:21:38;;;;;;;;;;;;;;;9.20;54.92;99674.50;4497194;31;35195;-84
2022/12/05 01:24:06;;;;;;;;;;;;;;;8.40;57.53;99671.41;4501002;31;33303;-86
2022/12/05 01:26:33;;;;;;;;;;;;;;;9.56;54.67;99666.81;4512225;31;34932;-85
2022/12/05 01:29:00;;;;;;;;;;;;;;;9.00;56.02;99674.84;4500126;31;34665;-84
2022/12/05 01:31:28;;;;;;;;;;;;;;;9.60;54.67;99679.00;4506729;31;35077;-85
2022/12/05 01:33:56;;;;;;;;;;;;;;;10.47;52.17;99680.16;4507757;31;33613;-86
2022/12/05 01:36:24;;;;;;;;;;;;;;;9.18;55.90;99687.41;4498460;31;33774;-84
2022/12/05 01:38:51;;;;;;;;;;;;;;;8.85;56.98;99686.47;4499063;31;35385;-83
2022/12/05 01:41:19;;;;;;;;;;;;;;;9.80;54.45;99678.59;4506199;31;34717;-84
2022/12/05 01:43:54;;;;;;;;;;;;;;;9.25;56.06;99689.31;4512080;31;33684;-89
2022/12/05 01:46:21;;;;;;;;;;;;;;;9.98;53.98;99689.41;4496988;31;35089;-84
2022/12/05 01:48:49;;;;;;;;;;;;;;;9.94;53.53;99682.41;4499056;31;35248;-84
2022/12/05 01:51:17;;;;;;;;;;;;;;;10.00;53.75;99677.38;4500744;31;34174;-90
2022/12/05 01:53:44;;;;;;;;;;;;;;;9.51;54.82;99673.59;4498013;31;33746;-90
2022/12/05 01:56:11;;;;;;;;;;;;;;;9.96;53.27;99672.94;4498235;31;34248;-88
2022/12/05 01:58:39;;;;;;;;;;;;;;;9.67;54.61;99674.84;4502566;31;34631;-84
2022/12/05 02:01:06;;;;;;;;;;;;;;;9.85;53.76;99672.72;4504468;31;35292;-83
2022/12/05 02:03:34;;;;;;;;;;;;;;;9.78;53.42;99672.53;4501824;31;33301;-90
2022/12/05 02:06:01;;;;;;;;;;;;;;;9.29;55.00;99673.87;4499308;31;35520;-88
2022/12/05 02:08:28;;;;;;;;;;;;;;;10.06;53.43;99674.03;4496472;31;34538;-84
2022/12/05 02:10:56;;;;;;;;;;;;;;;9.78;53.79;99680.28;4502537;31;34024;-87
2022/12/05 02:13:42;;;;;;;;;;;;;;;10.12;52.98;99685.41;4512373;31;33385;-88
2022/12/05 02:16:12;;;;;;;;;;;;;;;10.59;51.83;99677.81;4498296;31;34267;-84
2022/12/05 02:18:45;;;;;;;;;;;;;;;10.04;53.38;99676.59;4498361;31;33748;-89
2022/12/05 02:21:28;;;;;;;;;;;;;;;9.18;55.35;99682.22;4500042;31;35145;-90
2022/12/05 02:24:06;;;;;;;;;;;;;;;10.21;53.18;99687.34;4512391;31;33553;-83
2022/12/05 02:26:41;;;;;;;;;;;;;;;10.45;52.29;99687.03;4502386;31;33649;-89
2022/12/05 02:29:12;;;;;;;;;;;;;;;10.28;52.43;99690.97;4501089;31;34633;-85
2022/12/05 02:31:45;;;;;;;;;;;;;;;10.62;51.72;99690.00;4497456;31;34674;-85
2022/12/05 02:34:19;;;;;;;;;;;;;;;10.79;51.42;99686.00;4503581;31;33985;-89
2022/12/05 02:37:00;;;;;;;;;;;;;;;9.96;53.17;99685.88;4505952;31;34364;-83
2022/12/05 02:39:31;;;;;;;;;;;;;;;8.88;56.64;99695.22;4500011;31;34598;-85
2022/12/05 02:42:00;;;;;;;;;;;;;;;9.97;54.15;99703.19;4498587;31;34666;-85
2022/12/05 02:44:47;;;;;;;;;;;;;;;9.69;54.32;99696.47;4499626;31;33559;-86
2022/12/05 02:47:16;;;;;;;;;;;;;;;10.88;51.62;99693.12;4508783;31;33844;-86
2022/12/05 02:49:44;;;;;;;;;;;;;;;9.92;53.74;99702.19;4498653;31;33920;-84
2022/12/05 02:52:11;;;;;;;;;;;;;;;9.53;55.36;99695.19;4499889;31;35080;-83
2022/12/05 02:54:40;;;;;;;;;;;;;;;9.38;55.71;99692.22;4498364;31;33791;-85
2022/12/05 02:57:07;;;;;;;;;;;;;;;8.86;57.27;99708.91;4505475;31;34190;-83
2022/12/05 02:59:34;;;;;;;;;;;;;;;10.40;53.43;99706.78;4506062;31;34425;-85
2022/12/05 03:02:02;;;;;;;;;;;;;;;10.11;54.20;99703.50;4498302;31;34955;-89
2022/12/05 03:04:29;;;;;;;;;;;;;;;10.80;52.21;99694.69;4513550;31;34566;-89
2022/12/05 03:07:02;;;;;;;;;;;;;;;11.11;51.38;99694.44;4513684;31;33383;-89
2022/12/05 03:09:34;;;;;;;;;;;;;;;9.52;54.97;99692.59;4514391;31;34593;-88
2022/12/05 03:12:07;;;;;;;;;;;;;;;8.82;57.51;99700.19;4501370;31;35863;-89
2022/12/05 03:14:36;;;;;;;;;;;;;;;9.67;55.71;99704.19;4505501;31;34216;-90
2022/12/05 03:17:04;;;;;;;;;;;;;;;9.72;55.28;99696.53;4510908;31;33994;-85
2022/12/05 03:19:50;;;;;;;;;;;;;;;8.83;57.76;99708.84;4509569;31;34626;-83
2022/12/05 03:22:20;;;;;;;;;;;;;;;8.20;60.13;99705.25;4513515;31;34521;-86
2022/12/05 03:24:47;;;;;;;;;;;;;;;9.94;55.38;99703.13;4514441;31;34356;-84
2022/12/05 03:27:22;;;;;;;;;;;;;;;9.54;56.41;99698.66;4510274;31;34225;-84
2022/12/05 03:29:57;;;;;;;;;;;;;;;10.03;55.18;99695.53;4504703;31;35136;-84
2022/12/05 03:32:31;;;;;;;;;;;;;;;9.49;56.45;99689.06;4512349;31;34917;-83
2022/12/05 03:35:19;;;;;;;;;;;;;;;10.15;54.64;99687.19;4506476;31;34094;-84
2022/12/05 03:37:52;;;;;;;;;;;;;;;10.83;52.96;99680.03;4498374;31;33919;-85
2022/12/05 03:40:22;;;;;;;;;;;;;;;10.06;54.53;99690.44;4500339;31;33878;-85
2022/12/05 03:43:01;;;;;;;;;;;;;;;10.12;54.25;99689.72;4501174;31;34500;-89
2022/12/05 03:45:32;;;;;;;;;;;;;;;10.04;54.67;99688.66;4498363;31;33104;-87
2022/12/05 03:48:04;;;;;;;;;;;;;;;10.52;53.63;99688.03;4497870;31;34975;-90
2022/12/05 03:50:31;;;;;;;;;;;;;;;9.13;57.90;99693.28;4499568;31;34103;-84
2022/12/05 03:52:59;;;;;;;;;;;;;;;9.21;57.79;99687.50;4498225;31;34234;-84
2022/12/05 03:55:50;;;;;;;;;;;;;;;9.37;57.24;99693.06;4501951;31;34181;-83
2022/12/05 03:58:19;;;;;;;;;;;;;;;10.57;53.48;99699.38;4500648;31;34091;-90
2022/12/05 04:00:46;;;;;;;;;;;;;;;10.56;53.49;99698.50;4505911;31;35350;-89
2022/12/05 04:03:16;;;;;;;;;;;;;;;10.56;54.12;99700.22;4510717;31;33114;-88
2022/12/05 04:05:45;;;;;;;;;;;;;;;9.19;57.53;99696.03;4509004;31;33506;-90
2022/12/05 04:08:23;;;;;;;;;;;;;;;10.36;54.52;99695.47;4498432;31;33637;-83
2022/12/05 04:10:52;;;;;;;;;;;;;;;9.06;58.10;99697.44;4497829;31;33922;-86
2022/12/05 04:13:46;;;;;;;;;;;;;;;9.44;57.54;99694.97;4513772;31;34939;-85
2022/12/05 04:19:14;;;;;;;;;;;;;;;10.36;54.51;99697.19;4510416;31;35023;-83
2022/12/05 04:21:43;;;;;;;;;;;;;;;9.43;57.00;99685.44;4511336;31;34530;-85
2022/12/05 04:27:02;;;;;;;;;;;;;;;9.20;58.10;99688.31;4499255;31;33785;-83
2022/12/05 04:29:30;;;;;;;;;;;;;;;9.04;58.85;99683.56;4503176;31;34881;-88
2022/12/05 04:31:58;;;;;;;;;;;;;;;8.02;61.47;99689.16;4512022;31;35139;-87
2022/12/05 04:34:27;;;;;;;;;;;;;;;8.26;61.27;99678.75;4513725;31;35119;-85
2022/12/05 04:36:56;;;;;;;;;;;;;;;8.44;61.49;99668.09;4504899;31;34452;-85
2022/12/05 04:39:26;;;;;;;;;;;;;;;7.99;62.37;99668.41;4497881;31;34877;-86
2022/12/05 04:41:55;;;;;;;;;;;;;;;8.77;60.18;99674.22;4513389;31;34468;-90
2022/12/05 04:44:24;;;;;;;;;;;;;;;8.69;59.68;99685.19;4510302;31;34362;-83
2022/12/05 04:46:52;;;;;;;;;;;;;;;8.70;59.76;99672.28;4506676;31;33672;-83
2022/12/05 04:49:20;;;;;;;;;;;;;;;8.81;59.72;99669.12;4500112;31;33211;-83
2022/12/05 04:51:51;;;;;;;;;;;;;;;8.90;59.64;99674.56;4506224;31;34305;-86
2022/12/05 04:54:21;;;;;;;;;;;;;;;9.00;59.42;99668.81;4498718;31;34560;-83
2022/12/05 04:56:49;;;;;;;;;;;;;;;8.55;60.41;99677.03;4502272;31;34514;-83
2022/12/05 04:59:16;;;;;;;;;;;;;;;8.02;62.44;99674.53;4500858;31;33954;-84
2022/12/05 05:01:54;;;;;;;;;;;;;;;8.32;61.76;99672.87;4504428;31;34498;-84
2022/12/05 05:04:26;;;;;;;;;;;;;;;9.66;57.78;99675.66;4498490;31;34128;-84
2022/12/05 05:06:53;;;;;;;;;;;;;;;9.48;57.83;99676.97;4508936;31;34537;-87
2022/12/05 05:09:20;;;;;;;;;;;;;;;9.46;57.82;99688.13;4510787;31;33742;-90
2022/12/05 05:11:47;;;;;;;;;;;;;;;10.37;55.16;99685.97;4504405;31;35088;-84
2022/12/05 05:14:15;;;;;;;;;;;;;;;10.23;55.54;99696.03;4502175;31;33946;-84
2022/12/05 05:16:42;;;;;;;;;;;;;;;10.45;54.80;99695.69;4500070;31;34436;-85
2022/12/05 05:19:09;;;;;;;;;;;;;;;9.61;56.69;99700.56;4498632;31;35028;-84
2022/12/05 05:21:37;;;;;;;;;;;;;;;10.55;54.80;99709.72;4503000;31;33334;-87
2022/12/05 05:24:05;;;;;;;;;;;;;;;10.63;54.51;99695.19;4498844;31;34108;-86
2022/12/05 05:26:33;;;;;;;;;;;;;;;10.13;55.64;99700.12;4508798;31;33577;-83
2022/12/05 05:29:00;;;;;;;;;;;;;;;10.65;54.05;99690.94;4507908;31;34328;-84
2022/12/05 05:31:27;;;;;;;;;;;;;;;10.00;55.79;99698.09;4499680;31;34956;-89
2022/12/05 05:33:55;;;;;;;;;;;;;;;9.68;56.69;99695.59;4510069;31;34426;-90
2022/12/05 05:36:23;;;;;;;;;;;;;;;9.15;57.86;99700.25;4501303;31;33634;-84
2022/12/05 05:38:51;;;;;;;;;;;;;;;10.22;55.58;99708.09;4508573;31;33956;-84
2022/12/05 05:41:19;;;;;;;;;;;;;;;9.40;57.81;99696.63;4503022;31;33927;-83
2022/12/05 05:43:47;;;;;;;;;;;;;;;9.37;57.72;99691.34;4508224;31;35221;-84
2022/12/05 05:46:15;;;;;;;;;;;;;;;9.79;56.93;99692.38;4509053;31;33595;-84
2022/12/05 05:48:42;;;;;;;;;;;;;;;8.76;59.76;99702.63;4514451;31;34129;-82
2022/12/05 05:51:10;;;;;;;;;;;;;;;9.00;59.40;99703.28;4507609;31;35186;-84
2022/12/05 05:53:37;;;;;;;;;;;;;;;8.36;61.38;99703.13;4496831;31;34395;-83
2022/12/05 05:56:09;;;;;;;;;;;;;;;8.42;61.50;99709.38;4496643;31;33436;-85
2022/12/05 05:58:36;;;;;;;;;;;;;;;9.04;59.83;99701.66;4505179;31;34094;-85
2022/12/05 06:01:06;;;;;;;;;;;;;;;9.51;58.29;99704.66;4502239;31;34871;-84
2022/12/05 06:03:34;;;;;;;;;;;;;;;9.39;58.23;99712.94;4510080;31;35275;-87
2022/12/05 06:06:03;;;;;;;;;;;;;;;9.03;59.33;99723.19;4514054;31;34268;-85
2022/12/05 06:08:34;;;;;;;;;;;;;;;8.75;59.69;99729.28;4503954;31;34111;-88
2022/12/05 06:11:05;;;;;;;;;;;;;;;8.93;59.99;99724.66;4498825;31;34531;-88
2022/12/05 06:13:33;;;;;;;;;;;;;;;8.64;60.73;99726.41;4511971;31;33976;-85
2022/12/05 06:16:00;;;;;;;;;;;;;;;9.19;59.29;99716.72;4515782;31;33115;-87
2022/12/05 06:18:28;;;;;;;;;;;;;;;8.16;62.36;99718.87;4508529;31;34928;-89
2022/12/05 06:20:55;;;;;;;;;;;;;;;9.24;58.66;99712.56;4500750;31;35259;-85
2022/12/05 06:23:23;;;;;;;;;;;;;;;9.05;59.38;99726.69;4507310;31;34148;-89
2022/12/05 06:25:51;;;;;;;;;;;;;;;8.75;60.48;99729.28;4500111;31;33797;-89
2022/12/05 06:28:18;;;;;;;;;;;;;;;8.03;62.46;99732.22;4514397;31;34031;-87
2022/12/05 06:30:45;;;;;;;;;;;;;;;8.71;60.86;99730.94;4515708;31;34412;-86
2022/12/05 06:33:13;;;;;;;;;;;;;;;9.14;59.81;99726.09;4508593;31;35234;-85
2022/12/05 06:35:41;;;;;;;;;;;;;;;9.17;59.47;99729.66;4498837;31;33757;-88
2022/12/05 06:38:09;;;;;;;;;;;;;;;8.71;60.38;99730.03;4500431;31;34019;-88
2022/12/05 06:40:39;;;;;;;;;;;;;;;8.87;60.14;99731.38;4507892;31;34549;-85
2022/12/05 06:43:07;;;;;;;;;;;;;;;8.82;60.04;99733.81;4514432;31;35111;-87
2022/12/05 06:45:36;;;;;;;;;;;;;;;9.35;58.84;99730.94;4501929;31;32648;-84
2022/12/05 06:48:03;;;;;;;;;;;;;;;8.75;60.23;99742.22;4499897;31;34121;-83
2022/12/05 06:50:30;;;;;;;;;;;;;;;8.76;60.92;99739.69;4499840;31;34419;-85
2022/12/05 06:52:57;;;;;;;;;;;;;;;8.93;60.12;99742.75;4499868;31;34376;-87
2022/12/05 06:55:25;;;;;;;;;;;;;;;9.25;59.16;99741.06;4512112;31;34375;-84
2022/12/05 06:57:52;;;;;;;;;;;;;;;8.55;61.43;99741.63;4515829;31;34853;-84
2022/12/05 07:03:05;;;;;;;;;;;;;;;9.21;59.38;99740.94;4506008;31;34808;-85
2022/12/05 07:05:34;;;;;;;;;;;;;;;9.29;59.13;99742.03;4499729;31;33188;-86
2022/12/05 07:08:01;;;;;;;;;;;;;;;9.56;58.31;99741.87;4513437;31;35075;-88
2022/12/05 07:10:29;;;;;;;;;;;;;;;9.17;59.09;99757.22;4515697;31;34392;-87
2022/12/05 07:12:56;;;;;;;;;;;;;;;9.37;58.63;99750.88;4509684;31;34369;-83
2022/12/05 07:15:23;;;;;;;;;;;;;;;9.09;59.98;99763.88;4515604;31;33901;-86
2022/12/05 07:17:50;;;;;;;;;;;;;;;9.64;57.91;99765.37;4515377;31;33902;-88
2022/12/05 07:20:18;;;;;;;;;;;;;;;9.84;57.62;99763.28;4515423;31;33598;-87
2022/12/05 07:22:45;;;;;;;;;;;;;;;9.38;58.55;99770.72;4502851;31;34728;-84
2022/12/05 07:25:12;;;;;;;;;;;;;;;8.76;60.35;99773.28;4499688;31;33617;-85
2022/12/05 07:27:39;;;;;;;;;;;;;;;9.40;58.61;99771.66;4500620;31;34279;-85
2022/12/05 07:30:07;;;;;;;;;;;;;;;10.35;56.00;99768.91;4499600;31;34230;-86
2022/12/05 07:32:34;;;;;;;;;;;;;;;10.85;54.35;99765.69;4499690;31;34535;-85
2022/12/05 07:35:01;;;;;;;;;;;;;;;10.99;54.24;99768.56;4499517;31;33224;-89
2022/12/05 07:37:28;;;;;;;;;;;;;;;10.42;55.61;99780.28;4501663;31;34185;-88
2022/12/05 07:39:56;;;;;;;;;;;;;;;10.81;54.58;99779.44;4515213;31;35057;-84
2022/12/05 07:42:23;;;;;;;;;;;;;;;10.83;54.37;99786.38;4515562;31;34477;-88
2022/12/05 07:44:50;;;;;;;;;;;;;;;10.36;55.74;99785.31;4508298;31;34623;-87
2022/12/05 07:47:18;;;;;;;;;;;;;;;10.15;56.42;99778.78;4512955;31;33811;-86
2022/12/05 07:49:45;;;;;;;;;;;;;;;10.73;55.00;99778.38;4512750;31;34033;-84
2022/12/05 07:52:12;;;;;;;;;;;;;;;10.77;54.83;99785.38;4499665;31;34182;-87
2022/12/05 07:54:39;;;;;;;;;;;;;;;9.43;58.56;99792.44;4499849;31;34719;-82
2022/12/05 07:57:07;;;;;;;;;;;;;;;9.33;58.73;99794.75;4499686;31;34499;-84
2022/12/05 07:59:34;;;;;;;;;;;;;;;10.12;56.62;99789.06;4499740;31;34542;-84
2022/12/05 08:02:02;;;;;;;;;;;;;;;10.21;56.37;99791.84;4499553;31;34062;-85
2022/12/05 08:04:29;;;;;;;;;;;;;;;10.71;54.93;99791.31;4498062;31;34141;-85
2022/12/05 08:06:56;;;;;;;;;;;;;;;9.77;57.62;99792.44;4499150;31;34313;-86
2022/12/05 08:09:23;;;;;;;;;;;;;;;9.49;58.00;99796.91;4499408;31;34719;-86
2022/12/05 08:11:51;;;;;;;;;;;;;;;9.65;58.04;99799.06;4499402;31;33966;-86
2022/12/05 08:14:19;;;;;;;;;;;;;;;9.98;56.89;99793.88;4499225;31;33532;-86
2022/12/05 08:16:46;;;;;;;;;;;;;;;10.97;54.56;99802.25;4498001;31;34786;-84
2022/12/05 08:19:15;;;;;;;;;;;;;;;10.71;54.80;99791.31;4499244;31;34190;-84
2022/12/05 08:21:42;;;;;;;;;;;;;;;9.71;57.32;99798.34;4499428;31;35216;-86
2022/12/05 08:24:10;;;;;;;;;;;;;;;10.21;55.80;99791.84;4499389;31;33168;-84
2022/12/05 08:26:37;;;;;;;;;;;;;;;9.25;59.38;99794.53;4497886;31;34300;-84
2022/12/05 08:29:08;;;;;;;;;;;;;;;9.61;57.91;99794.63;4499238;31;35290;-87
2022/12/05 08:31:37;;;;;;;;;;;;;;;10.13;56.67;99789.91;4497837;31;34594;-83
2022/12/05 08:34:05;;;;;;;;;;;;;;;9.59;58.22;99793.75;4497771;31;33470;-84
2022/12/05 08:36:32;;;;;;;;;;;;;;;10.13;56.86;99803.75;4499140;31;34880;-87
2022/12/05 08:39:00;;;;;;;;;;;;;;;10.65;55.42;99801.56;4498942;31;34755;-86
2022/12/05 08:41:28;;;;;;;;;;;;;;;9.69;57.81;99795.72;4499097;31;35227;-84
2022/12/05 08:43:58;;;;;;;;;;;;;;;9.18;59.35;99803.81;4497740;31;33572;-83
2022/12/05 08:46:25;;;;;;;;;;;;;;;9.31;59.08;99801.56;4497555;31;33940;-86
2022/12/05 08:48:53;;;;;;;;;;;;;;;9.36;59.29;99803.47;4498967;31;34774;-86
2022/12/05 08:51:20;;;;;;;;;;;;;;;8.73;60.43;99806.81;4499032;31;35069;-87
2022/12/05 08:53:47;;;;;;;;;;;;;;;9.38;59.01;99808.69;4498923;31;34229;-86
2022/12/05 08:56:15;;;;;;;;;;;;;;;9.32;59.64;99811.06;4499026;31;33864;-84
2022/12/05 08:58:42;;;;;;;;;;;;;;;9.42;58.77;99807.91;4499164;31;33855;-86
2022/12/05 09:01:10;;;;;;;;;;;;;;;9.37;58.85;99809.50;4499010;31;34059;-87
2022/12/05 09:03:38;;;;;;;;;;;;;;;9.30;59.38;99805.88;4497699;31;33411;-85
2022/12/05 09:06:15;;;;;;;;;;;;;;;10.39;56.37;99806.12;4499256;31;34180;-86
2022/12/05 09:08:43;;;;;;;;;;;;;;;9.91;57.61;99804.03;4497662;31;33759;-86
2022/12/05 09:11:11;;;;;;;;;;;;;;;9.42;59.13;99807.91;4497655;31;34365;-86
2022/12/05 09:13:39;;;;;;;;;;;;;;;10.46;56.18;99806.31;4498747;31;33712;-84
2022/12/05 09:16:11;;;;;;;;;;;;;;;10.50;56.00;99794.31;4497595;31;34163;-86
2022/12/05 09:18:38;;;;;;;;;;;;;;;10.61;55.26;99792.81;4497421;31;34254;-86
2022/12/05 09:21:12;;;;;;;;;;;;;;;11.38;53.13;99790.13;4498567;31;34281;-86
2022/12/05 09:23:39;;;;;;;;;;;;;;;10.79;54.43;99786.28;4498784;31;34510;-86
2022/12/05 09:26:08;;;;;;;;;;;;;;;10.19;56.48;99793.53;4497668;31;34023;-84
2022/12/05 09:28:35;;;;;;;;;;;;;;;10.10;56.77;99795.91;4497237;31;35363;-84
2022/12/05 09:31:04;;;;;;;;;;;;;;;9.52;58.68;99791.81;4498787;31;34481;-83
2022/12/05 09:33:32;;;;;;;;;;;;;;;8.85;60.31;99789.91;4498880;31;33774;-84
2022/12/05 09:36:26;;;;;;;;;;;;;;;9.27;59.47;99785.94;4498440;31;34767;-84
2022/12/05 09:38:54;;;;;;;;;;;;;;;9.25;59.20;99785.06;4497693;31;33931;-86
2022/12/05 09:44:14;;;;;;;;;;;;;;;10.51;55.90;99790.84;4497743;31;33730;-86
2022/12/05 09:46:48;;;;;;;;;;;;;;;11.05;54.52;99792.03;4500360;31;34973;-84
2022/12/05 09:49:15;;;;;;;;;;;;;;;9.91;56.65;99786.78;4499200;31;35146;-84
2022/12/05 09:51:43;;;;;;;;;;;;;;;9.91;57.27;99791.97;4498931;31;35208;-86
2022/12/05 09:54:11;;;;;;;;;;;;;;;10.11;57.06;99789.88;4499343;31;34366;-86
2022/12/05 09:56:38;;;;;;;;;;;;;;;10.18;56.72;99784.00;4500264;31;33114;-84
2022/12/05 09:59:14;;;;;;;;;;;;;;;10.18;56.83;99776.22;4499174;31;34379;-84
2022/12/05 10:02:01;;;;;;;;;;;;;;;11.15;54.07;99774.09;4499063;31;33947;-84
2022/12/05 10:04:29;;;;;;;;;;;;;;;10.88;54.53;99771.81;4500343;31;32977;-86
2022/12/05 10:07:06;;;;;;;;;;;;;;;10.50;56.28;99758.00;4500288;31;34135;-86
2022/12/05 10:09:40;;;;;;;;;;;;;;;9.44;58.81;99752.78;4498938;31;34797;-86
2022/12/05 10:12:14;;;;;;;;;;;;;;;9.35;59.52;99749.94;4500218;31;33888;-86
2022/12/05 10:14:48;;;;;;;;;;;;;;;9.88;58.45;99754.75;4498897;31;33444;-86
2022/12/05 10:17:24;;;;;;;;;;;;;;;10.08;57.52;99757.84;4498915;31;34097;-84
2022/12/05 10:19:52;;;;;;;;;;;;;;;9.86;58.15;99751.28;4500259;31;35107;-86
2022/12/05 10:22:41;;;;;;;;;;;;;;;10.65;56.20;99742.78;4498855;31;35182;-84
2022/12/05 10:25:08;;;;;;;;;;;;;;;10.37;56.99;99740.41;4500233;31;34228;-87
2022/12/05 10:27:37;;;;;;;;;;;;;;;9.98;57.71;99731.72;4498867;31;34890;-84
2022/12/05 10:30:16;;;;;;;;;;;;;;;9.66;59.40;99724.84;4500003;31;34877;-85
2022/12/05 10:32:44;;;;;;;;;;;;;;;8.82;61.37;99730.34;4500238;31;34531;-86
2022/12/05 10:35:14;;;;;;;;;;;;;;;10.52;57.50;99726.91;4500164;31;33387;-87
2022/12/05 10:37:43;;;;;;;;;;;;;;;10.32;56.75;99717.00;4500259;31;34204;-86
2022/12/05 10:40:11;;;;;;;;;;;;;;;9.25;59.98;99725.53;4498609;31;34637;-84
2022/12/05 10:42:38;;;;;;;;;;;;;;;9.90;59.05;99717.72;4499951;31;34401;-86
2022/12/05 10:45:06;;;;;;;;;;;;;;;10.71;56.43;99735.13;4499881;31;33562;-84
2022/12/05 10:47:34;;;;;;;;;;;;;;;11.12;55.41;99722.12;4498745;31;33805;-84
2022/12/05 10:50:03;;;;;;;;;;;;;;;11.82;53.53;99729.41;4500429;31;34381;-87
2022/12/05 10:52:30;;;;;;;;;;;;;;;12.25;52.30;99732.75;4498695;31;35257;-84
2022/12/05 10:54:59;;;;;;;;;;;;;;;11.35;53.86;99725.16;4499359;31;33503;-87
2022/12/05 10:57:28;;;;;;;;;;;;;;;11.02;55.17;99712.41;4498503;31;34205;-84
2022/12/05 10:59:56;;;;;;;;;;;;;;;11.21;54.27;99718.81;4499690;31;34170;-85
2022/12/05 11:02:30;;;;;;;;;;;;;;;11.17;54.04;99709.22;4498707;31;35166;-86
2022/12/05 11:04:58;;;;;;;;;;;;;;;10.76;55.56;99716.19;4499944;31;33670;-84
2022/12/05 11:07:28;;;;;;;;;;;;;;;10.17;57.21;99711.44;4499637;31;34336;-84
2022/12/05 11:09:57;;;;;;;;;;;;;;;10.12;57.60;99711.31;4498567;31;34792;-85
2022/12/05 11:12:26;;;;;;;;;;;;;;;9.62;59.23;99700.62;4498502;31;34816;-86
2022/12/05 11:15:06;;;;;;;;;;;;;;;10.07;57.82;99704.28;4498418;31;33470;-86
2022/12/05 11:17:37;;;;;;;;;;;;;;;10.73;56.09;99709.25;4499919;31;34190;-86
2022/12/05 11:20:16;;;;;;;;;;;;;;;11.37;54.24;99704.44;4498247;31;34866;-86
2022/12/05 11:22:44;;;;;;;;;;;;;;;11.43;53.65;99705.38;4499973;31;34506;-86
2022/12/05 11:25:27;;;;;;;;;;;;;;;10.92;55.22;99702.69;4499827;31;33310;-84
2022/12/05 11:27:54;;;;;;;;;;;;;;;10.76;55.97;99704.13;4499478;31;34055;-86
2022/12/05 11:30:27;;;;;;;;;;;;;;;11.98;52.77;99695.09;4499517;31;34293;-83
2022/12/05 11:33:13;;;;;;;;;;;;;;;10.64;55.47;99694.34;4499661;31;33963;-87
2022/12/05 11:35:41;;;;;;;;;;;;;;;10.41;56.68;99685.19;4499630;31;33284;-84
2022/12/05 11:38:08;;;;;;;;;;;;;;;10.58;56.57;99685.59;4498192;31;33763;-86
2022/12/05 11:40:41;;;;;;;;;;;;;;;9.82;58.19;99684.69;4498281;31;35397;-84
2022/12/05 11:43:32;;;;;;;;;;;;;;;9.75;58.88;99674.19;4499237;31;34336;-83
2022/12/05 11:45:59;;;;;;;;;;;;;;;9.85;58.95;99676.97;4498367;31;34152;-86
2022/12/05 11:48:40;;;;;;;;;;;;;;;10.33;57.55;99674.66;4499838;31;34486;-83
2022/12/05 11:51:07;;;;;;;;;;;;;;;10.37;57.18;99678.22;4498244;31;35039;-85
2022/12/05 11:53:34;;;;;;;;;;;;;;;9.85;58.44;99666.63;4499780;31;34425;-87
2022/12/05 11:56:20;;;;;;;;;;;;;;;10.38;56.82;99659.22;4499274;31;34346;-83
2022/12/05 11:59:02;;;;;;;;;;;;;;;10.21;57.35;99666.59;4499524;31;34629;-84
2022/12/05 12:01:45;;;;;;;;;;;;;;;11.10;55.21;99648.56;4499441;31;34418;-84
2022/12/05 12:04:18;;;;;;;;;;;;;;;11.36;54.60;99649.00;4499707;31;34095;-85
2022/12/05 12:06:52;;;;;;;;;;;;;;;11.01;54.94;99663.09;4498433;31;33822;-86
2022/12/05 12:09:33;;;;;;;;;;;;;;;11.05;55.04;99660.56;4498110;31;33800;-86
2022/12/05 12:12:03;;;;;;;;;;;;;;;10.81;55.71;99660.13;4497845;31;34170;-86
2022/12/05 12:14:34;;;;;;;;;;;;;;;10.43;57.17;99667.97;4497978;31;34363;-86
2022/12/05 12:17:17;;;;;;;;;;;;;;;10.15;57.76;99662.19;4498055;31;34019;-85
2022/12/05 12:19:50;;;;;;;;;;;;;;;11.23;54.86;99648.78;4499250;31;35079;-85
2022/12/05 12:22:20;;;;;;;;;;;;;;;10.64;56.50;99647.66;4499234;31;34615;-84
2022/12/05 12:24:54;;;;;;;;;;;;;;;10.37;56.75;99647.09;4499146;31;34512;-84
2022/12/05 12:27:35;;;;;;;;;;;;;;;10.80;56.00;99640.22;4499145;31;34604;-84
2022/12/05 12:30:12;;;;;;;;;;;;;;;10.35;56.79;99639.31;4497981;31;34843;-86
2022/12/05 12:32:39;;;;;;;;;;;;;;;10.42;57.17;99642.91;4499220;31;35346;-83
2022/12/05 12:35:12;;;;;;;;;;;;;;;10.47;57.28;99655.12;4499418;31;34241;-86
2022/12/05 12:38:16;;;;;;;;;;;;;;;10.08;58.42;99649.06;4498082;31;34503;-85
2022/12/05 12:40:49;;;;;;;;;;;;;;;10.47;56.94;99643.87;4480893;32;34130;-86
2022/12/05 12:43:16;;;;;;;;;;;;;;;10.46;56.85;99644.72;4492658;31;34213;-83
2022/12/05 12:46:07;;;;;;;;;;;;;;;11.54;54.23;99627.69;4499220;31;36227;-84
2022/12/05 12:48:53;;;;;;;;;;;;;;;10.75;56.44;99623.66;4497804;31;33619;-84
2022/12/05 12:51:21;;;;;;;;;;;;;;;10.86;55.91;99611.78;4497848;31;34105;-86
2022/12/05 12:53:57;;;;;;;;;;;;;;;10.75;56.52;99627.13;4499081;31;33936;-84
2022/12/05 12:56:27;;;;;;;;;;;;;;;10.62;56.56;99628.63;4499077;31;34165;-85
2022/12/05 12:59:07;;;;;;;;;;;;;;;10.11;58.20;99621.47;4498877;31;34131;-85
2022/12/05 13:01:46;;;;;;;;;;;;;;;10.06;58.27;99620.50;4499074;31;34015;-86
2022/12/05 13:04:15;;;;;;;;;;;;;;;10.19;58.37;99617.34;4498765;31;34447;-86
2022/12/05 13:06:49;;;;;;;;;;;;;;;9.85;59.24;99617.41;4497728;31;34600;-86
2022/12/05 13:09:25;;;;;;;;;;;;;;;10.24;58.32;99597.59;4497497;31;34332;-85
2022/12/05 13:11:53;;;;;;;;;;;;;;;9.87;59.38;99603.69;4497641;31;34166;-86
2022/12/05 13:14:23;;;;;;;;;;;;;;;10.18;58.66;99604.34;4497756;31;34370;-85
2022/12/05 13:16:51;;;;;;;;;;;;;;;9.66;60.08;99608.34;4497433;31;34337;-86
2022/12/05 13:19:23;;;;;;;;;;;;;;;10.31;58.14;99608.12;4498399;31;33350;-84